createdAt,value
2019-05-15T00:01:08.852Z,3.37
2019-05-15T00:03:41.020Z,2.83
2019-05-15T00:06:13.045Z,3.43
2019-05-15T00:08:45.014Z,3.40
2019-05-15T00:11:19.196Z,3.87
2019-05-15T00:13:51.843Z,3.23
2019-05-15T00:16:23.858Z,3.10
2019-05-15T00:18:55.912Z,3.13
2019-05-15T00:21:28.790Z,3.30
2019-05-15T00:24:00.891Z,3.57
2019-05-15T00:26:33.130Z,2.83
2019-05-15T00:29:12.911Z,3.13
2019-05-15T00:31:38.999Z,3.10
2019-05-15T00:34:12.757Z,3.40
2019-05-15T00:36:44.984Z,3.03
2019-05-15T00:39:18.905Z,3.37
2019-05-15T00:41:54.628Z,3.50
2019-05-15T00:44:24.679Z,2.90
2019-05-15T00:46:58.261Z,3.23
2019-05-15T00:49:30.427Z,3.10
2019-05-15T00:52:02.527Z,3.10
2019-05-15T00:54:34.480Z,2.90
2019-05-15T00:57:08.534Z,3.10
2019-05-15T00:59:40.348Z,2.97
2019-05-15T01:02:12.410Z,3.47
2019-05-15T01:04:44.364Z,3.53
2019-05-15T01:07:18.667Z,3.10
2019-05-15T01:09:49.967Z,2.70
2019-05-15T01:12:22.269Z,10.33
2019-05-15T01:14:54.305Z,3.20
2019-05-15T01:17:26.260Z,3.47
2019-05-15T01:19:58.817Z,3.50
2019-05-15T01:22:30.990Z,3.73
2019-05-15T01:25:02.995Z,3.33
2019-05-15T01:27:34.957Z,3.07
2019-05-15T01:30:09.271Z,3.47
2019-05-15T01:32:41.407Z,3.33
2019-05-15T01:35:13.489Z,3.77
2019-05-15T01:37:45.463Z,3.97
2019-05-15T01:40:18.605Z,3.50
2019-05-15T01:42:50.567Z,3.90
2019-05-15T01:45:22.655Z,3.47
2019-05-15T01:47:54.838Z,4.00
2019-05-15T01:50:29.108Z,3.67
2019-05-15T01:53:00.620Z,3.50
2019-05-15T01:55:32.670Z,4.03
2019-05-15T01:58:04.729Z,4.43
2019-05-15T02:00:38.876Z,4.07
2019-05-15T02:03:10.504Z,3.47
2019-05-15T02:05:42.553Z,3.10
2019-05-15T02:08:14.756Z,3.60
2019-05-15T02:10:49.156Z,3.23
2019-05-15T02:13:20.462Z,3.20
2019-05-15T02:15:53.124Z,3.03
2019-05-15T02:18:25.062Z,3.13
2019-05-15T02:20:58.703Z,3.07
2019-05-15T02:23:30.849Z,2.97
2019-05-15T02:26:03.084Z,3.10
2019-05-15T02:28:35.071Z,2.90
2019-05-15T02:31:10.545Z,2.80
2019-05-15T02:33:40.740Z,2.90
2019-05-15T02:36:12.727Z,2.90
2019-05-15T02:38:44.746Z,2.77
2019-05-15T02:41:19.477Z,3.27
2019-05-15T02:43:50.635Z,2.67
2019-05-15T02:46:22.937Z,2.60
2019-05-15T02:48:54.906Z,3.30
2019-05-15T02:51:30.010Z,3.20
2019-05-15T02:54:00.698Z,2.93
2019-05-15T02:56:32.703Z,2.87
2019-05-15T02:59:04.666Z,2.80
2019-05-15T03:01:39.939Z,3.27
2019-05-15T03:04:10.710Z,2.70
2019-05-15T03:06:42.705Z,2.67
2019-05-15T03:09:14.790Z,2.87
2019-05-15T03:11:49.415Z,2.60
2019-05-15T03:14:21.683Z,3.00
2019-05-15T03:16:53.847Z,3.10
2019-05-15T03:19:25.815Z,3.13
2019-05-15T03:21:59.915Z,3.17
2019-05-15T03:24:31.560Z,3.27
2019-05-15T03:27:03.844Z,2.90
2019-05-15T03:29:35.947Z,3.10
2019-05-15T03:32:23.015Z,2.90
2019-05-15T03:34:47.284Z,3.17
2019-05-15T03:37:21.492Z,2.87
2019-05-15T03:39:51.768Z,3.07
2019-05-15T03:42:23.142Z,3.23
2019-05-15T03:44:55.260Z,3.40
2019-05-15T03:47:29.960Z,3.53
2019-05-15T03:50:01.042Z,3.30
2019-05-15T03:52:33.034Z,3.30
2019-05-15T03:55:10.955Z,3.70
2019-05-15T03:57:40.724Z,3.37
2019-05-15T04:00:13.232Z,3.17
2019-05-15T04:02:48.633Z,3.00
2019-05-15T04:05:19.883Z,3.07
2019-05-15T04:07:52.046Z,2.63
2019-05-15T04:10:24.043Z,2.60
2019-05-15T04:12:56.093Z,2.90
2019-05-15T04:15:30.084Z,3.20
2019-05-15T04:18:01.898Z,3.33
2019-05-15T04:20:33.931Z,3.00
2019-05-15T04:23:09.784Z,2.77
2019-05-15T04:25:40.622Z,3.27
2019-05-15T04:28:19.112Z,3.00
2019-05-15T04:30:51.625Z,3.00
2019-05-15T04:33:23.689Z,2.90
2019-05-15T04:35:58.736Z,3.33
2019-05-15T04:38:29.563Z,2.80
2019-05-15T04:41:01.607Z,2.57
2019-05-15T04:43:41.446Z,3.10
2019-05-15T04:46:09.752Z,3.47
2019-05-15T04:48:40.991Z,2.80
2019-05-15T04:51:12.947Z,3.00
2019-05-15T04:53:44.948Z,3.53
2019-05-15T04:56:19.293Z,2.90
2019-05-15T04:58:51.248Z,3.37
2019-05-15T05:01:23.396Z,3.33
2019-05-15T05:03:55.427Z,3.17
2019-05-15T05:06:29.391Z,3.27
2019-05-15T05:09:02.951Z,3.60
2019-05-15T05:11:38.133Z,3.57
2019-05-15T05:14:09.488Z,3.50
2019-05-15T05:16:41.506Z,3.07
2019-05-15T05:19:13.557Z,3.20
2019-05-15T05:21:47.840Z,3.30
2019-05-15T05:24:19.738Z,3.97
2019-05-15T05:26:51.914Z,3.53
2019-05-15T05:29:24.007Z,3.43
2019-05-15T05:31:58.451Z,3.23
2019-05-15T05:34:30.909Z,3.07
2019-05-15T05:37:02.932Z,3.37
2019-05-15T05:39:35.026Z,3.00
2019-05-15T05:42:07.905Z,2.97
2019-05-15T05:44:42.912Z,3.17
2019-05-15T05:47:14.939Z,2.33
2019-05-15T05:49:48.851Z,2.50
2019-05-15T05:52:20.726Z,2.33
2019-05-15T05:54:52.663Z,2.10
2019-05-15T05:57:24.731Z,2.10
2019-05-15T05:59:58.278Z,1.70
2019-05-15T06:02:43.824Z,2.20
2019-05-15T06:05:05.148Z,2.13
2019-05-15T06:07:38.726Z,1.77
2019-05-15T06:10:10.979Z,2.10
2019-05-15T06:12:42.923Z,1.80
2019-05-15T06:15:15.102Z,1.90
2019-05-15T06:17:48.127Z,2.00
2019-05-15T06:20:20.536Z,1.57
2019-05-15T06:22:52.743Z,1.73
2019-05-15T06:25:24.809Z,1.30
2019-05-15T06:27:58.334Z,1.30
2019-05-15T06:30:31.429Z,1.60
2019-05-15T06:33:09.396Z,1.70
2019-05-15T06:35:39.329Z,1.50
2019-05-15T06:38:10.923Z,1.50
2019-05-15T06:40:42.928Z,1.47
2019-05-15T06:43:15.009Z,1.67
2019-05-15T06:45:48.712Z,1.30
2019-05-15T06:48:20.817Z,1.60
2019-05-15T06:50:52.946Z,1.80
2019-05-15T06:53:24.937Z,1.67
2019-05-15T06:55:58.510Z,1.90
2019-05-15T06:58:30.683Z,1.70
2019-05-15T07:01:02.650Z,1.60
2019-05-15T07:03:34.646Z,1.90
2019-05-15T07:06:09.211Z,1.50
2019-05-15T07:08:40.479Z,1.50
2019-05-15T07:11:12.530Z,1.37
2019-05-15T07:13:48.465Z,1.30
2019-05-15T07:16:20.073Z,1.50
2019-05-15T07:18:52.224Z,1.53
2019-05-15T07:21:24.482Z,1.53
2019-05-15T07:23:58.353Z,1.50
2019-05-15T07:26:30.158Z,1.63
2019-05-15T07:29:02.515Z,1.63
2019-05-15T07:31:34.534Z,1.43
2019-05-15T07:34:08.348Z,1.63
2019-05-15T07:36:40.279Z,1.63
2019-05-15T07:39:12.318Z,1.40
2019-05-15T07:41:44.297Z,1.90
2019-05-15T07:44:18.610Z,1.53
2019-05-15T07:46:49.967Z,1.80
2019-05-15T07:49:22.030Z,1.60
2019-05-15T07:51:54.199Z,1.53
2019-05-15T07:54:28.705Z,1.80
2019-05-15T07:57:00.027Z,1.63
2019-05-15T07:59:32.063Z,1.50
2019-05-15T08:02:04.236Z,1.13
2019-05-15T08:04:38.080Z,1.50
2019-05-15T08:07:10.293Z,1.30
2019-05-15T08:09:42.364Z,1.70
2019-05-15T08:12:14.423Z,1.40
2019-05-15T08:14:48.304Z,1.70
2019-05-15T08:17:22.039Z,1.70
2019-05-15T08:19:53.795Z,1.60
2019-05-15T08:22:28.324Z,1.80
2019-05-15T08:24:59.605Z,1.40
2019-05-15T08:27:31.632Z,1.87
2019-05-15T08:30:05.554Z,1.57
2019-05-15T08:32:38.908Z,1.90
2019-05-15T08:35:12.697Z,1.83
2019-05-15T08:37:45.063Z,1.43
2019-05-15T08:40:17.939Z,1.60
2019-05-15T08:42:57.167Z,1.50
2019-05-15T08:45:24.182Z,1.40
2019-05-15T08:47:58.567Z,1.67
2019-05-15T08:50:30.599Z,1.57
2019-05-15T08:53:02.610Z,1.30
2019-05-15T08:55:34.625Z,1.47
2019-05-15T08:58:13.576Z,1.40
2019-05-15T09:00:43.779Z,2.10
2019-05-15T09:03:14.845Z,1.60
2019-05-15T09:05:48.405Z,1.60
2019-05-15T09:08:20.843Z,1.63
2019-05-15T09:10:52.961Z,1.30
2019-05-15T09:13:25.007Z,1.40
2019-05-15T09:15:58.876Z,1.30
2019-05-15T09:18:31.000Z,1.40
2019-05-15T09:21:02.991Z,1.67
2019-05-15T09:23:35.064Z,1.30
2019-05-15T09:26:09.258Z,1.27
2019-05-15T09:28:42.121Z,1.47
2019-05-15T09:31:14.297Z,1.37
2019-05-15T09:33:49.000Z,1.80
2019-05-15T09:36:20.988Z,1.17
2019-05-15T09:38:53.057Z,1.87
2019-05-15T09:41:25.099Z,1.50
2019-05-15T09:43:57.857Z,1.17
2019-05-15T09:46:30.282Z,1.10
2019-05-15T09:49:02.430Z,1.50
2019-05-15T09:51:34.489Z,1.87
2019-05-15T09:54:08.109Z,1.80
2019-05-15T09:56:40.469Z,1.87
2019-05-15T09:59:12.737Z,1.50
2019-05-15T10:01:44.769Z,1.67
2019-05-15T10:04:19.087Z,1.20
2019-05-15T10:06:50.472Z,1.50
2019-05-15T10:09:22.838Z,1.40
2019-05-15T10:11:55.422Z,1.37
2019-05-15T10:14:29.618Z,1.60
2019-05-15T10:17:02.037Z,1.40
2019-05-15T10:19:34.183Z,1.50
2019-05-15T10:22:09.484Z,1.70
2019-05-15T10:24:40.297Z,1.40
2019-05-15T10:27:13.385Z,1.60
2019-05-15T10:29:48.388Z,1.50
2019-05-15T10:32:23.171Z,2.00
2019-05-15T10:34:58.764Z,1.20
2019-05-15T10:37:39.006Z,1.50
2019-05-15T10:40:11.845Z,1.43
2019-05-15T10:42:43.892Z,1.20
2019-05-15T10:45:18.981Z,1.20
2019-05-15T10:47:50.158Z,1.60
2019-05-15T10:50:22.646Z,1.43
2019-05-15T10:52:54.694Z,1.40
2019-05-15T10:55:28.882Z,1.07
2019-05-15T10:58:00.921Z,1.60
2019-05-15T11:00:33.099Z,1.10
2019-05-15T11:03:05.225Z,1.10
2019-05-15T11:05:45.098Z,1.20
2019-05-15T11:08:11.313Z,1.90
2019-05-15T11:10:43.597Z,1.20
2019-05-15T11:13:18.383Z,1.10
2019-05-15T11:15:51.077Z,1.30
2019-05-15T11:18:23.190Z,1.00
2019-05-15T11:20:55.736Z,1.50
2019-05-15T11:23:29.274Z,1.53
2019-05-15T11:26:01.421Z,1.27
2019-05-15T11:28:34.175Z,1.30
2019-05-15T11:31:09.947Z,1.20
2019-05-15T11:33:40.879Z,1.17
2019-05-15T11:36:13.591Z,1.07
2019-05-15T11:38:45.625Z,1.10
2019-05-15T11:41:19.145Z,1.33
2019-05-15T11:43:51.508Z,1.10
2019-05-15T11:46:25.842Z,1.00
2019-05-15T11:48:58.988Z,1.30
2019-05-15T11:51:31.203Z,1.27
2019-05-15T11:54:03.546Z,1.27
2019-05-15T11:56:35.619Z,1.10
2019-05-15T11:59:08.558Z,1.00
2019-05-15T12:01:40.603Z,1.00
2019-05-15T12:04:26.616Z,1.17
2019-05-15T12:06:58.188Z,1.20
2019-05-15T12:09:20.042Z,1.10
2019-05-15T12:11:52.121Z,1.00
2019-05-15T12:14:24.300Z,0.97
2019-05-15T12:17:07.202Z,1.30
2019-05-15T12:19:30.260Z,0.90
2019-05-15T12:22:02.319Z,1.00
2019-05-15T12:27:15.238Z,1.23
2019-05-15T12:29:41.829Z,1.30
2019-05-15T12:32:26.605Z,1.20
2019-05-15T12:34:51.252Z,1.20
2019-05-15T12:37:23.390Z,1.20
2019-05-15T13:00:38.144Z,1.30
2019-05-15T13:03:11.331Z,1.20
2019-05-15T13:05:43.482Z,1.10
2019-05-15T13:08:15.454Z,1.13
2019-05-15T13:10:48.753Z,1.20
2019-05-15T13:13:21.523Z,1.27
2019-05-15T13:15:53.547Z,1.00
2019-05-15T13:18:25.555Z,1.10
2019-05-15T13:20:59.400Z,1.90
2019-05-15T13:23:31.243Z,1.07
2019-05-15T13:26:03.364Z,0.97
2019-05-15T13:28:35.361Z,1.00
2019-05-15T13:31:09.197Z,1.17
2019-05-15T13:33:41.336Z,1.00
2019-05-15T13:36:13.293Z,1.40
2019-05-15T13:38:48.131Z,1.20
2019-05-15T13:41:20.363Z,0.80
2019-05-15T13:43:52.565Z,0.90
2019-05-15T13:46:24.966Z,0.90
2019-05-15T13:48:59.147Z,1.23
2019-05-15T13:51:31.063Z,1.20
2019-05-15T13:54:03.022Z,1.37
2019-05-15T13:56:35.046Z,1.00
2019-05-15T13:59:08.023Z,0.90
2019-05-15T14:01:40.182Z,1.10
2019-05-15T14:04:12.182Z,1.13
2019-05-15T14:06:44.096Z,1.17
2019-05-15T14:09:16.053Z,1.13
2019-05-15T14:11:49.390Z,1.20
2019-05-15T14:14:21.656Z,1.10
2019-05-15T14:16:53.672Z,0.83
2019-05-15T14:19:27.963Z,0.80
2019-05-15T14:21:59.950Z,1.10
2019-05-15T14:24:32.166Z,0.80
2019-05-15T14:27:04.128Z,0.93
2019-05-15T14:29:36.151Z,0.90
2019-05-15T14:32:08.735Z,1.00
2019-05-15T14:34:41.277Z,0.90
2019-05-15T14:37:13.289Z,0.80
2019-05-15T14:39:45.259Z,1.00
2019-05-15T14:42:18.669Z,0.70
2019-05-15T14:44:50.819Z,0.90
2019-05-15T14:47:26.245Z,0.80
2019-05-15T14:49:58.401Z,0.90
2019-05-15T14:52:30.563Z,0.90
2019-05-15T14:55:02.516Z,1.03
2019-05-15T14:57:34.714Z,1.03
2019-05-15T15:00:10.110Z,0.87
2019-05-15T15:02:42.206Z,1.30
2019-05-15T15:05:14.363Z,1.10
2019-05-15T15:07:48.791Z,1.10
2019-05-15T15:10:20.428Z,1.07
2019-05-15T15:12:52.337Z,1.07
2019-05-15T15:15:24.590Z,1.30
2019-05-15T15:17:58.358Z,1.10
2019-05-15T15:20:30.489Z,1.30
2019-05-15T15:23:02.447Z,0.93
2019-05-15T15:25:34.493Z,1.20
2019-05-15T15:28:08.285Z,1.10
2019-05-15T15:30:40.565Z,1.10
2019-05-15T15:33:12.538Z,1.20
2019-05-15T15:35:44.502Z,1.20
2019-05-15T15:38:16.492Z,1.33
2019-05-15T15:40:48.717Z,0.93
2019-05-15T15:43:21.006Z,1.07
2019-05-15T15:45:53.297Z,1.80
2019-05-15T15:48:28.576Z,1.00
2019-05-15T15:51:00.179Z,1.13
2019-05-15T15:53:32.324Z,1.20
2019-05-15T15:56:06.975Z,0.97
2019-05-15T15:58:38.417Z,1.17
2019-05-15T16:01:10.389Z,1.00
2019-05-15T16:03:42.433Z,1.53
2019-05-15T16:06:14.382Z,1.10
2019-05-15T16:08:52.937Z,1.20
2019-05-15T16:11:20.811Z,1.20
2019-05-15T16:13:52.858Z,1.30
2019-05-15T16:16:24.909Z,1.13
2019-05-15T16:18:56.927Z,1.20
2019-05-15T16:21:29.682Z,1.40
2019-05-15T16:24:13.686Z,1.10
2019-05-15T16:26:35.448Z,1.00
2019-05-15T16:29:09.176Z,1.00
2019-05-15T16:31:41.134Z,1.10
2019-05-15T16:34:13.205Z,1.30
2019-05-15T16:36:45.188Z,1.20
2019-05-15T16:39:18.219Z,1.17
2019-05-15T16:41:50.416Z,1.23
2019-05-15T16:44:22.771Z,1.00
2019-05-15T16:46:54.834Z,1.40
2019-05-15T16:49:28.469Z,1.30
2019-05-15T16:52:00.600Z,1.20
2019-05-15T16:54:32.625Z,1.90
2019-05-15T16:57:04.935Z,1.37
2019-05-15T16:59:39.042Z,1.60
2019-05-15T17:02:11.214Z,2.50
2019-05-15T17:04:44.002Z,1.93
2019-05-15T17:07:18.082Z,2.07
2019-05-15T17:09:49.783Z,1.57
2019-05-15T17:12:21.736Z,1.80
2019-05-15T17:14:53.679Z,1.37
2019-05-15T17:17:25.625Z,2.10
2019-05-15T17:19:58.015Z,1.50
2019-05-15T17:22:30.276Z,1.10
2019-05-15T17:25:02.291Z,1.07
2019-05-15T17:27:37.079Z,1.30
2019-05-15T17:30:09.875Z,1.40
2019-05-15T17:32:41.949Z,1.20
2019-05-15T17:35:14.670Z,1.40
2019-05-15T17:37:48.650Z,1.50
2019-05-15T17:40:20.655Z,1.63
2019-05-15T17:42:52.625Z,1.70
2019-05-15T17:45:24.949Z,1.30
2019-05-15T17:47:58.464Z,1.70
2019-05-15T17:50:44.742Z,1.50
2019-05-15T17:53:04.249Z,1.33
2019-05-15T17:55:38.437Z,1.70
2019-05-15T17:58:10.513Z,1.80
2019-05-15T18:00:42.629Z,1.57
2019-05-15T18:03:14.638Z,1.80
2019-05-15T18:05:48.412Z,1.10
2019-05-15T18:08:20.424Z,1.27
2019-05-15T18:10:52.511Z,1.50
2019-05-15T18:13:24.525Z,1.40
2019-05-15T18:16:03.208Z,1.03
2019-05-15T18:18:31.584Z,1.50
2019-05-15T18:21:03.555Z,1.20
2019-05-15T18:23:35.681Z,1.60
2019-05-15T18:26:09.054Z,1.50
2019-05-15T18:28:41.446Z,1.30
2019-05-15T18:31:13.509Z,1.30
2019-05-15T18:33:53.378Z,1.73
2019-05-15T18:36:19.378Z,1.47
2019-05-15T18:38:51.342Z,1.20
2019-05-15T18:41:23.519Z,2.10
2019-05-15T18:43:57.760Z,1.33
2019-05-15T18:46:29.191Z,1.37
2019-05-15T18:49:01.467Z,1.90
2019-05-15T18:51:33.559Z,1.50
2019-05-15T18:54:08.011Z,1.77
2019-05-15T18:56:39.524Z,1.47
2019-05-15T18:59:11.512Z,1.90
2019-05-15T19:01:43.635Z,1.43
2019-05-15T19:04:18.139Z,2.50
2019-05-15T19:06:49.802Z,1.50
2019-05-15T19:09:21.794Z,1.37
2019-05-15T19:11:54.107Z,1.20
2019-05-15T19:14:28.003Z,1.30
2019-05-15T19:16:59.931Z,1.20
2019-05-15T19:19:31.902Z,1.10
2019-05-15T19:22:04.159Z,1.70
2019-05-15T19:24:39.933Z,2.00
2019-05-15T19:27:09.928Z,1.50
2019-05-15T19:29:41.926Z,1.77
2019-05-15T19:32:14.010Z,2.43
2019-05-15T19:34:48.214Z,1.70
2019-05-15T19:37:19.889Z,1.90
2019-05-15T19:39:51.958Z,3.40
2019-05-15T19:42:23.895Z,1.80
2019-05-15T19:44:56.135Z,1.70
2019-05-15T19:47:28.204Z,1.70
2019-05-15T19:50:00.255Z,1.43
2019-05-15T19:52:32.271Z,1.87
2019-05-15T19:55:05.465Z,1.93
2019-05-15T19:57:38.987Z,1.30
2019-05-15T20:00:11.938Z,1.60
2019-05-15T20:02:43.978Z,1.60
2019-05-15T20:05:18.175Z,1.57
2019-05-15T20:07:49.868Z,1.70
2019-05-15T20:10:21.835Z,1.60
2019-05-15T20:12:53.803Z,1.13
2019-05-15T20:15:28.353Z,1.67
2019-05-15T20:18:00.666Z,1.30
2019-05-15T20:20:32.983Z,1.40
2019-05-15T20:23:05.019Z,1.20
2019-05-15T20:25:38.301Z,1.30
2019-05-15T20:28:10.309Z,1.83
2019-05-15T20:30:42.270Z,1.20
2019-05-15T20:33:14.514Z,1.37
2019-05-15T20:35:48.019Z,1.43
2019-05-15T20:38:20.919Z,1.40
2019-05-15T20:40:53.283Z,1.57
2019-05-15T20:43:25.251Z,1.27
2019-05-15T20:45:57.709Z,1.60
2019-05-15T20:48:29.880Z,2.00
2019-05-15T20:51:01.941Z,1.40
2019-05-15T20:53:33.931Z,1.40
2019-05-15T20:56:08.187Z,1.20
2019-05-15T20:58:39.586Z,1.13
2019-05-15T21:01:11.561Z,1.20
2019-05-15T21:03:43.505Z,1.40
2019-05-15T21:06:17.736Z,1.20
2019-05-15T21:08:49.322Z,1.20
2019-05-15T21:11:21.903Z,1.30
2019-05-15T21:13:54.174Z,1.10
2019-05-15T21:16:27.990Z,1.50
2019-05-15T21:19:00.301Z,1.17
2019-05-15T21:21:32.618Z,1.20
2019-05-15T21:24:04.626Z,1.30
2019-05-15T21:26:38.296Z,1.20
2019-05-15T21:29:10.372Z,1.23
2019-05-15T21:31:42.502Z,1.27
2019-05-15T21:34:14.463Z,1.30
2019-05-15T21:36:48.314Z,1.17
2019-05-15T21:39:20.219Z,1.30
2019-05-15T21:41:52.290Z,1.20
2019-05-15T21:44:24.254Z,1.20
2019-05-15T21:46:58.604Z,1.10
2019-05-15T21:49:30.013Z,1.00
2019-05-15T21:52:02.142Z,0.97
2019-05-15T21:54:34.166Z,1.27
2019-05-15T21:57:28.372Z,1.23
2019-05-15T21:59:40.426Z,1.33
2019-05-15T22:02:13.007Z,0.90
2019-05-15T22:04:52.682Z,1.20
2019-05-15T22:07:18.979Z,1.10
2019-05-15T22:09:51.476Z,1.20
2019-05-15T22:12:23.685Z,1.00
2019-05-15T22:14:57.676Z,1.10
2019-05-15T22:17:29.525Z,1.70
2019-05-15T22:20:01.651Z,1.10
2019-05-15T22:22:33.643Z,1.20
2019-05-15T22:25:11.249Z,0.90
2019-05-15T22:27:44.962Z,1.37
2019-05-15T22:30:19.807Z,1.00
2019-05-15T22:32:51.761Z,1.00
2019-05-15T22:35:24.418Z,1.20
2019-05-15T22:37:58.433Z,1.23
2019-05-15T22:40:30.413Z,1.27
2019-05-15T22:43:02.376Z,1.20
2019-05-15T22:45:34.415Z,1.13
2019-05-15T22:48:06.478Z,1.27
2019-05-15T22:50:38.549Z,0.90
2019-05-15T22:53:10.625Z,1.20
2019-05-15T22:55:42.883Z,1.10
2019-05-15T22:58:15.094Z,1.00
2019-05-15T23:00:48.975Z,1.00
2019-05-15T23:03:21.124Z,0.93
2019-05-15T23:05:53.259Z,1.87
2019-05-15T23:08:25.577Z,1.20
2019-05-15T23:10:58.735Z,1.20
2019-05-15T23:13:30.894Z,1.17
2019-05-15T23:16:02.890Z,1.10
2019-05-15T23:18:34.858Z,1.20
2019-05-15T23:21:08.852Z,0.90
2019-05-15T23:23:41.251Z,1.40
2019-05-15T23:26:13.244Z,1.20
2019-05-15T23:28:45.229Z,1.03
2019-05-15T23:31:18.871Z,1.10
2019-05-15T23:33:51.054Z,1.20
2019-05-15T23:36:23.047Z,1.40
2019-05-15T23:38:55.090Z,1.27
2019-05-15T23:41:28.104Z,1.27
2019-05-15T23:44:00.522Z,1.20
2019-05-15T23:46:32.557Z,1.30
2019-05-15T23:49:04.563Z,1.37
2019-05-15T23:51:42.115Z,1.27
2019-05-15T23:54:14.137Z,1.00
2019-05-15T23:56:47.029Z,1.50
2019-05-15T23:59:19.104Z,1.47
